sensor_id;sensor_type;location;lat;lon;timestamp;P1;durP1;ratioP1;P2;durP2;ratioP2
18726;SDS011;9492;51.888;5.186;2023-02-18T00:01:01;29.00;;;16.40;;
18726;SDS011;9492;51.888;5.186;2023-02-18T00:03:29;28.03;;;14.10;;
18726;SDS011;9492;51.888;5.186;2023-02-18T00:05:55;28.73;;;15.70;;
18726;SDS011;9492;51.888;5.186;2023-02-18T00:08:21;28.07;;;14.73;;
18726;SDS011;9492;51.888;5.186;2023-02-18T00:10:47;21.63;;;13.67;;
18726;SDS011;9492;51.888;5.186;2023-02-18T00:13:13;26.50;;;15.90;;
18726;SDS011;9492;51.888;5.186;2023-02-18T00:15:39;25.93;;;14.57;;
18726;SDS011;9492;51.888;5.186;2023-02-18T00:18:05;24.00;;;12.90;;
18726;SDS011;9492;51.888;5.186;2023-02-18T00:20:32;23.47;;;13.50;;
18726;SDS011;9492;51.888;5.186;2023-02-18T00:23:02;25.40;;;14.93;;
18726;SDS011;9492;51.888;5.186;2023-02-18T00:25:28;19.50;;;11.93;;
18726;SDS011;9492;51.888;5.186;2023-02-18T00:27:57;17.90;;;11.73;;
18726;SDS011;9492;51.888;5.186;2023-02-18T00:30:23;21.27;;;13.27;;
18726;SDS011;9492;51.888;5.186;2023-02-18T00:32:49;20.93;;;12.57;;
18726;SDS011;9492;51.888;5.186;2023-02-18T00:35:15;22.63;;;12.10;;
18726;SDS011;9492;51.888;5.186;2023-02-18T00:37:41;22.17;;;12.80;;
18726;SDS011;9492;51.888;5.186;2023-02-18T00:40:07;23.40;;;13.63;;
18726;SDS011;9492;51.888;5.186;2023-02-18T00:42:33;22.27;;;13.73;;
18726;SDS011;9492;51.888;5.186;2023-02-18T00:44:59;26.73;;;14.27;;
18726;SDS011;9492;51.888;5.186;2023-02-18T00:47:25;26.10;;;15.77;;
18726;SDS011;9492;51.888;5.186;2023-02-18T00:49:51;23.83;;;14.10;;
18726;SDS011;9492;51.888;5.186;2023-02-18T00:52:17;22.43;;;12.93;;
18726;SDS011;9492;51.888;5.186;2023-02-18T00:54:43;25.57;;;14.50;;
18726;SDS011;9492;51.888;5.186;2023-02-18T00:57:11;23.70;;;13.83;;
18726;SDS011;9492;51.888;5.186;2023-02-18T00:59:37;29.30;;;15.83;;
18726;SDS011;9492;51.888;5.186;2023-02-18T01:02:03;27.53;;;16.37;;
18726;SDS011;9492;51.888;5.186;2023-02-18T01:04:31;26.57;;;14.20;;
18726;SDS011;9492;51.888;5.186;2023-02-18T01:06:57;29.13;;;15.67;;
18726;SDS011;9492;51.888;5.186;2023-02-18T01:09:23;32.43;;;17.93;;
18726;SDS011;9492;51.888;5.186;2023-02-18T01:11:49;30.37;;;19.20;;
18726;SDS011;9492;51.888;5.186;2023-02-18T01:14:17;30.43;;;16.63;;
18726;SDS011;9492;51.888;5.186;2023-02-18T01:16:44;25.90;;;16.60;;
18726;SDS011;9492;51.888;5.186;2023-02-18T01:19:12;29.07;;;17.00;;
18726;SDS011;9492;51.888;5.186;2023-02-18T01:21:40;27.80;;;16.87;;
18726;SDS011;9492;51.888;5.186;2023-02-18T01:24:06;29.47;;;17.33;;
18726;SDS011;9492;51.888;5.186;2023-02-18T01:26:32;35.40;;;18.90;;
18726;SDS011;9492;51.888;5.186;2023-02-18T01:28:58;25.17;;;14.60;;
18726;SDS011;9492;51.888;5.186;2023-02-18T01:31:24;30.67;;;17.33;;
18726;SDS011;9492;51.888;5.186;2023-02-18T01:33:50;28.03;;;15.53;;
18726;SDS011;9492;51.888;5.186;2023-02-18T01:36:16;27.50;;;17.00;;
18726;SDS011;9492;51.888;5.186;2023-02-18T01:38:42;28.23;;;16.17;;
18726;SDS011;9492;51.888;5.186;2023-02-18T01:41:09;29.10;;;16.87;;
18726;SDS011;9492;51.888;5.186;2023-02-18T01:43:36;31.00;;;18.07;;
18726;SDS011;9492;51.888;5.186;2023-02-18T01:46:04;28.07;;;16.23;;
18726;SDS011;9492;51.888;5.186;2023-02-18T01:51:04;30.53;;;17.47;;
18726;SDS011;9492;51.888;5.186;2023-02-18T01:56:07;30.40;;;17.63;;
18726;SDS011;9492;51.888;5.186;2023-02-18T01:58:35;32.10;;;17.93;;
18726;SDS011;9492;51.888;5.186;2023-02-18T02:01:04;29.03;;;16.77;;
18726;SDS011;9492;51.888;5.186;2023-02-18T02:03:30;24.00;;;14.40;;
18726;SDS011;9492;51.888;5.186;2023-02-18T02:05:56;25.07;;;14.97;;
18726;SDS011;9492;51.888;5.186;2023-02-18T02:08:22;23.80;;;13.83;;
18726;SDS011;9492;51.888;5.186;2023-02-18T02:13:40;26.77;;;15.80;;
18726;SDS011;9492;51.888;5.186;2023-02-18T02:18:41;24.07;;;14.97;;
18726;SDS011;9492;51.888;5.186;2023-02-18T02:24:23;26.93;;;14.90;;
18726;SDS011;9492;51.888;5.186;2023-02-18T02:32:23;27.57;;;16.77;;
18726;SDS011;9492;51.888;5.186;2023-02-18T02:37:41;34.87;;;17.30;;
18726;SDS011;9492;51.888;5.186;2023-02-18T02:45:47;31.60;;;18.43;;
18726;SDS011;9492;51.888;5.186;2023-02-18T02:50:50;37.30;;;21.03;;
18726;SDS011;9492;51.888;5.186;2023-02-18T02:53:24;35.17;;;20.67;;
18726;SDS011;9492;51.888;5.186;2023-02-18T02:55:52;39.40;;;22.80;;
18726;SDS011;9492;51.888;5.186;2023-02-18T02:58:22;32.83;;;19.17;;
18726;SDS011;9492;51.888;5.186;2023-02-18T03:06:25;29.63;;;19.07;;
18726;SDS011;9492;51.888;5.186;2023-02-18T03:09:01;32.87;;;19.83;;
18726;SDS011;9492;51.888;5.186;2023-02-18T03:11:30;29.17;;;17.80;;
18726;SDS011;9492;51.888;5.186;2023-02-18T03:14:06;35.57;;;22.23;;
18726;SDS011;9492;51.888;5.186;2023-02-18T03:21:48;23.40;;;14.30;;
18726;SDS011;9492;51.888;5.186;2023-02-18T03:24:19;18.23;;;12.33;;
18726;SDS011;9492;51.888;5.186;2023-02-18T03:26:47;15.87;;;11.73;;
18726;SDS011;9492;51.888;5.186;2023-02-18T03:29:18;14.43;;;9.73;;
18726;SDS011;9492;51.888;5.186;2023-02-18T03:31:46;14.60;;;10.07;;
18726;SDS011;9492;51.888;5.186;2023-02-18T03:34:17;10.83;;;8.13;;
18726;SDS011;9492;51.888;5.186;2023-02-18T03:36:48;12.10;;;8.37;;
18726;SDS011;9492;51.888;5.186;2023-02-18T03:39:19;13.87;;;9.70;;
18726;SDS011;9492;51.888;5.186;2023-02-18T03:41:46;11.53;;;8.47;;
18726;SDS011;9492;51.888;5.186;2023-02-18T03:44:12;9.00;;;7.33;;
18726;SDS011;9492;51.888;5.186;2023-02-18T03:46:39;9.27;;;7.90;;
18726;SDS011;9492;51.888;5.186;2023-02-18T03:49:07;10.97;;;7.47;;
18726;SDS011;9492;51.888;5.186;2023-02-18T03:51:34;9.00;;;7.17;;
18726;SDS011;9492;51.888;5.186;2023-02-18T03:54:00;8.67;;;6.57;;
18726;SDS011;9492;51.888;5.186;2023-02-18T03:56:26;8.40;;;6.27;;
18726;SDS011;9492;51.888;5.186;2023-02-18T03:58:53;6.30;;;4.90;;
18726;SDS011;9492;51.888;5.186;2023-02-18T04:01:20;7.63;;;6.57;;
18726;SDS011;9492;51.888;5.186;2023-02-18T04:03:46;6.33;;;5.00;;
18726;SDS011;9492;51.888;5.186;2023-02-18T04:06:12;6.13;;;5.10;;
18726;SDS011;9492;51.888;5.186;2023-02-18T04:08:38;6.27;;;4.83;;
18726;SDS011;9492;51.888;5.186;2023-02-18T04:11:04;6.23;;;5.23;;
18726;SDS011;9492;51.888;5.186;2023-02-18T04:13:30;5.20;;;4.53;;
18726;SDS011;9492;51.888;5.186;2023-02-18T04:15:56;4.93;;;4.27;;
18726;SDS011;9492;51.888;5.186;2023-02-18T04:18:23;6.33;;;5.00;;
18726;SDS011;9492;51.888;5.186;2023-02-18T04:20:49;5.27;;;4.00;;
18726;SDS011;9492;51.888;5.186;2023-02-18T04:23:15;5.00;;;4.10;;
18726;SDS011;9492;51.888;5.186;2023-02-18T04:25:41;4.93;;;4.43;;
18726;SDS011;9492;51.888;5.186;2023-02-18T04:28:07;4.57;;;3.90;;
18726;SDS011;9492;51.888;5.186;2023-02-18T04:30:35;4.63;;;4.07;;
18726;SDS011;9492;51.888;5.186;2023-02-18T04:33:01;6.07;;;4.27;;
18726;SDS011;9492;51.888;5.186;2023-02-18T04:35:27;5.20;;;4.20;;
18726;SDS011;9492;51.888;5.186;2023-02-18T04:37:53;5.00;;;4.50;;
18726;SDS011;9492;51.888;5.186;2023-02-18T04:40:19;4.33;;;3.67;;
18726;SDS011;9492;51.888;5.186;2023-02-18T04:42:45;4.77;;;3.67;;
18726;SDS011;9492;51.888;5.186;2023-02-18T04:45:11;5.17;;;4.00;;
18726;SDS011;9492;51.888;5.186;2023-02-18T04:47:37;4.50;;;3.33;;
18726;SDS011;9492;51.888;5.186;2023-02-18T04:50:06;4.60;;;3.73;;
18726;SDS011;9492;51.888;5.186;2023-02-18T04:52:32;4.10;;;3.70;;
18726;SDS011;9492;51.888;5.186;2023-02-18T04:54:58;4.97;;;4.17;;
18726;SDS011;9492;51.888;5.186;2023-02-18T04:57:24;4.93;;;4.43;;
18726;SDS011;9492;51.888;5.186;2023-02-18T04:59:50;5.60;;;4.00;;
18726;SDS011;9492;51.888;5.186;2023-02-18T05:02:16;4.10;;;3.70;;
18726;SDS011;9492;51.888;5.186;2023-02-18T05:04:42;5.00;;;4.30;;
18726;SDS011;9492;51.888;5.186;2023-02-18T05:07:08;5.50;;;4.77;;
18726;SDS011;9492;51.888;5.186;2023-02-18T05:09:34;5.50;;;4.50;;
18726;SDS011;9492;51.888;5.186;2023-02-18T05:12:00;5.03;;;4.37;;
18726;SDS011;9492;51.888;5.186;2023-02-18T05:14:26;4.10;;;3.50;;
18726;SDS011;9492;51.888;5.186;2023-02-18T05:16:52;5.03;;;3.60;;
18726;SDS011;9492;51.888;5.186;2023-02-18T05:19:18;4.07;;;3.47;;
18726;SDS011;9492;51.888;5.186;2023-02-18T05:21:44;4.67;;;3.90;;
18726;SDS011;9492;51.888;5.186;2023-02-18T05:24:10;3.53;;;3.23;;
18726;SDS011;9492;51.888;5.186;2023-02-18T05:26:36;3.90;;;3.50;;
18726;SDS011;9492;51.888;5.186;2023-02-18T05:29:02;3.80;;;3.50;;
18726;SDS011;9492;51.888;5.186;2023-02-18T05:31:29;4.43;;;3.33;;
18726;SDS011;9492;51.888;5.186;2023-02-18T05:33:55;4.00;;;3.60;;
18726;SDS011;9492;51.888;5.186;2023-02-18T05:36:21;5.40;;;4.90;;
18726;SDS011;9492;51.888;5.186;2023-02-18T05:38:47;7.60;;;5.57;;
18726;SDS011;9492;51.888;5.186;2023-02-18T05:41:13;8.50;;;6.30;;
18726;SDS011;9492;51.888;5.186;2023-02-18T05:43:39;8.77;;;5.53;;
18726;SDS011;9492;51.888;5.186;2023-02-18T05:46:23;11.67;;;6.57;;
18726;SDS011;9492;51.888;5.186;2023-02-18T05:48:49;12.23;;;7.03;;
18726;SDS011;9492;51.888;5.186;2023-02-18T05:51:15;8.47;;;6.37;;
18726;SDS011;9492;51.888;5.186;2023-02-18T05:53:41;8.33;;;6.43;;
18726;SDS011;9492;51.888;5.186;2023-02-18T05:56:07;10.40;;;6.37;;
18726;SDS011;9492;51.888;5.186;2023-02-18T05:58:33;8.07;;;6.17;;
18726;SDS011;9492;51.888;5.186;2023-02-18T06:00:59;9.13;;;6.33;;
18726;SDS011;9492;51.888;5.186;2023-02-18T06:03:25;8.57;;;6.30;;
18726;SDS011;9492;51.888;5.186;2023-02-18T06:05:51;8.40;;;6.47;;
18726;SDS011;9492;51.888;5.186;2023-02-18T06:08:17;8.93;;;6.70;;
18726;SDS011;9492;51.888;5.186;2023-02-18T06:10:47;6.07;;;4.87;;
18726;SDS011;9492;51.888;5.186;2023-02-18T06:13:13;8.33;;;5.30;;
18726;SDS011;9492;51.888;5.186;2023-02-18T06:15:39;7.03;;;5.43;;
18726;SDS011;9492;51.888;5.186;2023-02-18T06:18:05;5.37;;;4.40;;
18726;SDS011;9492;51.888;5.186;2023-02-18T06:20:31;6.50;;;5.13;;
18726;SDS011;9492;51.888;5.186;2023-02-18T06:22:57;6.43;;;5.07;;
18726;SDS011;9492;51.888;5.186;2023-02-18T06:25:23;7.13;;;5.00;;
18726;SDS011;9492;51.888;5.186;2023-02-18T06:27:49;7.37;;;5.77;;
18726;SDS011;9492;51.888;5.186;2023-02-18T06:30:15;6.00;;;5.20;;
18726;SDS011;9492;51.888;5.186;2023-02-18T06:32:41;6.60;;;5.10;;
18726;SDS011;9492;51.888;5.186;2023-02-18T06:35:07;6.60;;;4.87;;
18726;SDS011;9492;51.888;5.186;2023-02-18T06:37:33;8.17;;;6.23;;
18726;SDS011;9492;51.888;5.186;2023-02-18T06:39:59;10.03;;;6.30;;
18726;SDS011;9492;51.888;5.186;2023-02-18T06:42:25;6.20;;;4.97;;
18726;SDS011;9492;51.888;5.186;2023-02-18T06:44:51;8.33;;;5.13;;
18726;SDS011;9492;51.888;5.186;2023-02-18T06:47:17;6.20;;;5.43;;
18726;SDS011;9492;51.888;5.186;2023-02-18T06:49:43;12.17;;;5.07;;
18726;SDS011;9492;51.888;5.186;2023-02-18T06:52:09;10.03;;;5.57;;
18726;SDS011;9492;51.888;5.186;2023-02-18T06:54:35;9.03;;;5.07;;
18726;SDS011;9492;51.888;5.186;2023-02-18T06:57:01;7.63;;;4.83;;
18726;SDS011;9492;51.888;5.186;2023-02-18T06:59:29;8.93;;;5.20;;
18726;SDS011;9492;51.888;5.186;2023-02-18T07:01:55;7.70;;;4.60;;
18726;SDS011;9492;51.888;5.186;2023-02-18T07:04:21;12.50;;;4.83;;
18726;SDS011;9492;51.888;5.186;2023-02-18T07:06:47;9.93;;;4.30;;
18726;SDS011;9492;51.888;5.186;2023-02-18T07:09:13;8.93;;;5.40;;
18726;SDS011;9492;51.888;5.186;2023-02-18T07:11:39;11.57;;;4.77;;
18726;SDS011;9492;51.888;5.186;2023-02-18T07:14:06;11.87;;;4.77;;
18726;SDS011;9492;51.888;5.186;2023-02-18T07:16:32;11.43;;;4.63;;
18726;SDS011;9492;51.888;5.186;2023-02-18T07:18:58;11.43;;;4.67;;
18726;SDS011;9492;51.888;5.186;2023-02-18T07:21:24;15.10;;;5.27;;
18726;SDS011;9492;51.888;5.186;2023-02-18T07:23:50;14.47;;;5.67;;
18726;SDS011;9492;51.888;5.186;2023-02-18T07:26:17;11.47;;;4.00;;
18726;SDS011;9492;51.888;5.186;2023-02-18T07:28:47;19.40;;;4.90;;
18726;SDS011;9492;51.888;5.186;2023-02-18T07:31:13;8.97;;;3.53;;
18726;SDS011;9492;51.888;5.186;2023-02-18T07:33:42;20.03;;;4.90;;
18726;SDS011;9492;51.888;5.186;2023-02-18T07:36:11;21.67;;;4.43;;
18726;SDS011;9492;51.888;5.186;2023-02-18T07:38:37;12.73;;;4.10;;
18726;SDS011;9492;51.888;5.186;2023-02-18T07:41:18;15.93;;;4.70;;
18726;SDS011;9492;51.888;5.186;2023-02-18T07:43:45;14.63;;;3.43;;
18726;SDS011;9492;51.888;5.186;2023-02-18T07:46:11;24.73;;;4.70;;
18726;SDS011;9492;51.888;5.186;2023-02-18T07:48:37;13.97;;;3.70;;
18726;SDS011;9492;51.888;5.186;2023-02-18T07:51:07;18.50;;;4.27;;
18726;SDS011;9492;51.888;5.186;2023-02-18T07:53:34;17.80;;;4.70;;
18726;SDS011;9492;51.888;5.186;2023-02-18T07:56:03;16.00;;;4.60;;
18726;SDS011;9492;51.888;5.186;2023-02-18T07:58:32;17.03;;;3.57;;
18726;SDS011;9492;51.888;5.186;2023-02-18T08:00:59;15.73;;;3.83;;
18726;SDS011;9492;51.888;5.186;2023-02-18T08:03:28;21.47;;;3.47;;
18726;SDS011;9492;51.888;5.186;2023-02-18T08:05:57;16.40;;;3.73;;
18726;SDS011;9492;51.888;5.186;2023-02-18T08:08:24;17.00;;;3.53;;
18726;SDS011;9492;51.888;5.186;2023-02-18T08:10:51;16.87;;;3.53;;
18726;SDS011;9492;51.888;5.186;2023-02-18T08:13:17;10.23;;;3.33;;
18726;SDS011;9492;51.888;5.186;2023-02-18T08:15:43;16.50;;;3.97;;
18726;SDS011;9492;51.888;5.186;2023-02-18T08:18:16;12.20;;;3.67;;
18726;SDS011;9492;51.888;5.186;2023-02-18T08:20:42;14.57;;;3.53;;
18726;SDS011;9492;51.888;5.186;2023-02-18T08:23:09;11.13;;;2.70;;
18726;SDS011;9492;51.888;5.186;2023-02-18T08:25:38;11.53;;;4.17;;
18726;SDS011;9492;51.888;5.186;2023-02-18T08:28:04;15.80;;;3.50;;
18726;SDS011;9492;51.888;5.186;2023-02-18T08:30:30;15.50;;;3.63;;
18726;SDS011;9492;51.888;5.186;2023-02-18T08:32:57;8.00;;;2.27;;
18726;SDS011;9492;51.888;5.186;2023-02-18T08:35:24;16.43;;;2.83;;
18726;SDS011;9492;51.888;5.186;2023-02-18T08:37:50;14.97;;;2.77;;
18726;SDS011;9492;51.888;5.186;2023-02-18T08:40:16;11.03;;;2.70;;
18726;SDS011;9492;51.888;5.186;2023-02-18T08:42:42;9.90;;;2.40;;
18726;SDS011;9492;51.888;5.186;2023-02-18T08:45:11;9.17;;;2.20;;
18726;SDS011;9492;51.888;5.186;2023-02-18T08:47:39;14.13;;;3.03;;
18726;SDS011;9492;51.888;5.186;2023-02-18T08:50:05;13.90;;;3.23;;
18726;SDS011;9492;51.888;5.186;2023-02-18T08:52:31;13.87;;;2.77;;
18726;SDS011;9492;51.888;5.186;2023-02-18T08:54:57;12.63;;;3.43;;
18726;SDS011;9492;51.888;5.186;2023-02-18T08:57:23;12.93;;;3.40;;
18726;SDS011;9492;51.888;5.186;2023-02-18T08:59:49;11.93;;;2.90;;
18726;SDS011;9492;51.888;5.186;2023-02-18T09:02:15;9.77;;;2.73;;
18726;SDS011;9492;51.888;5.186;2023-02-18T09:04:41;12.23;;;2.33;;
18726;SDS011;9492;51.888;5.186;2023-02-18T09:07:07;12.13;;;2.93;;
18726;SDS011;9492;51.888;5.186;2023-02-18T09:09:33;13.37;;;3.10;;
18726;SDS011;9492;51.888;5.186;2023-02-18T09:11:59;9.70;;;2.77;;
18726;SDS011;9492;51.888;5.186;2023-02-18T09:14:25;12.33;;;3.60;;
18726;SDS011;9492;51.888;5.186;2023-02-18T09:16:51;12.37;;;2.80;;
18726;SDS011;9492;51.888;5.186;2023-02-18T09:19:17;9.23;;;2.63;;
18726;SDS011;9492;51.888;5.186;2023-02-18T09:21:43;13.90;;;3.23;;
18726;SDS011;9492;51.888;5.186;2023-02-18T09:24:10;10.60;;;2.70;;
18726;SDS011;9492;51.888;5.186;2023-02-18T09:26:35;13.97;;;2.80;;
18726;SDS011;9492;51.888;5.186;2023-02-18T09:29:03;12.23;;;2.90;;
18726;SDS011;9492;51.888;5.186;2023-02-18T09:31:29;14.83;;;3.27;;
18726;SDS011;9492;51.888;5.186;2023-02-18T09:33:57;10.03;;;2.63;;
18726;SDS011;9492;51.888;5.186;2023-02-18T09:36:23;12.93;;;2.60;;
18726;SDS011;9492;51.888;5.186;2023-02-18T09:38:49;9.93;;;2.33;;
18726;SDS011;9492;51.888;5.186;2023-02-18T09:44:01;13.33;;;2.80;;
18726;SDS011;9492;51.888;5.186;2023-02-18T09:46:38;6.97;;;2.07;;
18726;SDS011;9492;51.888;5.186;2023-02-18T09:49:06;11.83;;;2.43;;
18726;SDS011;9492;51.888;5.186;2023-02-18T09:51:36;7.77;;;2.67;;
18726;SDS011;9492;51.888;5.186;2023-02-18T09:54:02;12.80;;;2.70;;
18726;SDS011;9492;51.888;5.186;2023-02-18T09:56:30;12.83;;;2.63;;
18726;SDS011;9492;51.888;5.186;2023-02-18T09:58:57;12.63;;;2.30;;
18726;SDS011;9492;51.888;5.186;2023-02-18T10:03:57;8.23;;;2.13;;
18726;SDS011;9492;51.888;5.186;2023-02-18T10:06:26;8.37;;;2.20;;
18726;SDS011;9492;51.888;5.186;2023-02-18T10:08:54;7.43;;;2.00;;
18726;SDS011;9492;51.888;5.186;2023-02-18T10:11:27;9.83;;;2.43;;
18726;SDS011;9492;51.888;5.186;2023-02-18T10:13:55;10.83;;;2.27;;
18726;SDS011;9492;51.888;5.186;2023-02-18T10:16:22;10.17;;;2.40;;
18726;SDS011;9492;51.888;5.186;2023-02-18T10:18:49;10.07;;;2.13;;
18726;SDS011;9492;51.888;5.186;2023-02-18T10:21:19;10.47;;;2.53;;
18726;SDS011;9492;51.888;5.186;2023-02-18T10:23:50;8.70;;;2.63;;
18726;SDS011;9492;51.888;5.186;2023-02-18T10:26:19;12.43;;;2.43;;
18726;SDS011;9492;51.888;5.186;2023-02-18T10:28:47;10.53;;;2.37;;
18726;SDS011;9492;51.888;5.186;2023-02-18T10:31:16;9.40;;;2.83;;
18726;SDS011;9492;51.888;5.186;2023-02-18T10:33:51;13.23;;;2.67;;
18726;SDS011;9492;51.888;5.186;2023-02-18T10:46:44;7.27;;;2.70;;
18726;SDS011;9492;51.888;5.186;2023-02-18T10:52:02;8.90;;;2.33;;
18726;SDS011;9492;51.888;5.186;2023-02-18T10:54:46;8.07;;;2.67;;
18726;SDS011;9492;51.888;5.186;2023-02-18T10:57:16;12.63;;;2.67;;
18726;SDS011;9492;51.888;5.186;2023-02-18T10:59:53;11.43;;;3.23;;
18726;SDS011;9492;51.888;5.186;2023-02-18T11:02:22;18.40;;;4.00;;
18726;SDS011;9492;51.888;5.186;2023-02-18T11:04:48;13.03;;;3.43;;
18726;SDS011;9492;51.888;5.186;2023-02-18T11:07:15;11.80;;;3.43;;
18726;SDS011;9492;51.888;5.186;2023-02-18T11:09:47;11.83;;;2.70;;
18726;SDS011;9492;51.888;5.186;2023-02-18T11:12:25;10.63;;;2.73;;
18726;SDS011;9492;51.888;5.186;2023-02-18T11:17:37;11.97;;;3.73;;
18726;SDS011;9492;51.888;5.186;2023-02-18T11:22:49;13.33;;;3.30;;
18726;SDS011;9492;51.888;5.186;2023-02-18T11:25:20;15.53;;;3.10;;
18726;SDS011;9492;51.888;5.186;2023-02-18T11:27:55;9.30;;;2.77;;
18726;SDS011;9492;51.888;5.186;2023-02-18T11:30:41;9.70;;;2.83;;
18726;SDS011;9492;51.888;5.186;2023-02-18T11:33:15;12.20;;;3.33;;
18726;SDS011;9492;51.888;5.186;2023-02-18T11:38:34;10.27;;;2.80;;
18726;SDS011;9492;51.888;5.186;2023-02-18T11:41:12;9.97;;;3.53;;
18726;SDS011;9492;51.888;5.186;2023-02-18T11:43:40;13.73;;;2.67;;
18726;SDS011;9492;51.888;5.186;2023-02-18T11:46:07;9.60;;;3.57;;
18726;SDS011;9492;51.888;5.186;2023-02-18T11:48:33;10.30;;;2.47;;
18726;SDS011;9492;51.888;5.186;2023-02-18T11:51:00;17.13;;;3.50;;
18726;SDS011;9492;51.888;5.186;2023-02-18T11:53:30;13.30;;;2.73;;
18726;SDS011;9492;51.888;5.186;2023-02-18T11:55:58;14.90;;;2.93;;
18726;SDS011;9492;51.888;5.186;2023-02-18T11:58:27;10.50;;;2.90;;
18726;SDS011;9492;51.888;5.186;2023-02-18T12:00:58;17.47;;;4.50;;
18726;SDS011;9492;51.888;5.186;2023-02-18T12:03:29;14.60;;;3.30;;
18726;SDS011;9492;51.888;5.186;2023-02-18T12:06:00;10.80;;;3.60;;
18726;SDS011;9492;51.888;5.186;2023-02-18T12:08:27;12.27;;;2.93;;
18726;SDS011;9492;51.888;5.186;2023-02-18T12:10:58;9.73;;;3.50;;
18726;SDS011;9492;51.888;5.186;2023-02-18T12:13:35;13.70;;;3.33;;
18726;SDS011;9492;51.888;5.186;2023-02-18T12:18:56;16.00;;;3.33;;
18726;SDS011;9492;51.888;5.186;2023-02-18T12:34:11;12.67;;;3.20;;
18726;SDS011;9492;51.888;5.186;2023-02-18T12:36:45;10.83;;;3.63;;
18726;SDS011;9492;51.888;5.186;2023-02-18T12:39:19;15.37;;;3.40;;
18726;SDS011;9492;51.888;5.186;2023-02-18T12:54:37;11.93;;;3.03;;
18726;SDS011;9492;51.888;5.186;2023-02-18T12:57:17;6.40;;;2.60;;
18726;SDS011;9492;51.888;5.186;2023-02-18T13:05:06;12.03;;;3.50;;
18726;SDS011;9492;51.888;5.186;2023-02-18T13:15:16;10.97;;;3.27;;
18726;SDS011;9492;51.888;5.186;2023-02-18T13:17:44;14.77;;;3.63;;
18726;SDS011;9492;51.888;5.186;2023-02-18T13:20:18;10.33;;;3.07;;
18726;SDS011;9492;51.888;5.186;2023-02-18T13:22:46;11.93;;;2.53;;
18726;SDS011;9492;51.888;5.186;2023-02-18T13:25:14;8.30;;;2.97;;
18726;SDS011;9492;51.888;5.186;2023-02-18T13:35:35;13.77;;;3.27;;
18726;SDS011;9492;51.888;5.186;2023-02-18T13:40:47;10.57;;;3.97;;
18726;SDS011;9492;51.888;5.186;2023-02-18T13:46:04;14.63;;;4.07;;
18726;SDS011;9492;51.888;5.186;2023-02-18T13:49:02;10.93;;;3.33;;
18726;SDS011;9492;51.888;5.186;2023-02-18T13:51:27;9.77;;;3.60;;
18726;SDS011;9492;51.888;5.186;2023-02-18T13:53:58;16.30;;;4.37;;
18726;SDS011;9492;51.888;5.186;2023-02-18T13:56:32;6.23;;;3.10;;
18726;SDS011;9492;51.888;5.186;2023-02-18T13:59:07;12.73;;;3.87;;
18726;SDS011;9492;51.888;5.186;2023-02-18T14:01:39;17.47;;;3.87;;
18726;SDS011;9492;51.888;5.186;2023-02-18T14:09:35;14.23;;;3.73;;
18726;SDS011;9492;51.888;5.186;2023-02-18T14:14:50;11.40;;;3.20;;
18726;SDS011;9492;51.888;5.186;2023-02-18T14:19:53;16.53;;;4.07;;
18726;SDS011;9492;51.888;5.186;2023-02-18T14:27:36;13.57;;;4.20;;
18726;SDS011;9492;51.888;5.186;2023-02-18T14:30:07;11.13;;;3.13;;
18726;SDS011;9492;51.888;5.186;2023-02-18T14:32:40;14.90;;;3.47;;
18726;SDS011;9492;51.888;5.186;2023-02-18T14:37:51;13.73;;;3.70;;
18726;SDS011;9492;51.888;5.186;2023-02-18T14:42:50;9.10;;;3.77;;
18726;SDS011;9492;51.888;5.186;2023-02-18T14:50:49;9.00;;;3.43;;
18726;SDS011;9492;51.888;5.186;2023-02-18T14:53:18;14.43;;;3.70;;
18726;SDS011;9492;51.888;5.186;2023-02-18T14:55:49;9.63;;;4.03;;
18726;SDS011;9492;51.888;5.186;2023-02-18T15:00:51;11.17;;;3.20;;
18726;SDS011;9492;51.888;5.186;2023-02-18T15:03:20;10.70;;;3.23;;
18726;SDS011;9492;51.888;5.186;2023-02-18T15:05:47;12.57;;;2.80;;
18726;SDS011;9492;51.888;5.186;2023-02-18T15:08:19;13.00;;;3.43;;
18726;SDS011;9492;51.888;5.186;2023-02-18T15:10:47;13.53;;;3.50;;
18726;SDS011;9492;51.888;5.186;2023-02-18T15:13:21;10.60;;;3.03;;
18726;SDS011;9492;51.888;5.186;2023-02-18T15:15:52;14.13;;;2.83;;
18726;SDS011;9492;51.888;5.186;2023-02-18T15:18:36;13.67;;;3.20;;
18726;SDS011;9492;51.888;5.186;2023-02-18T15:21:04;11.70;;;3.23;;
18726;SDS011;9492;51.888;5.186;2023-02-18T15:23:30;10.57;;;3.43;;
18726;SDS011;9492;51.888;5.186;2023-02-18T15:25:59;14.00;;;3.57;;
18726;SDS011;9492;51.888;5.186;2023-02-18T15:28:30;12.57;;;3.60;;
18726;SDS011;9492;51.888;5.186;2023-02-18T15:30:57;12.50;;;3.57;;
18726;SDS011;9492;51.888;5.186;2023-02-18T15:33:29;17.00;;;3.40;;
18726;SDS011;9492;51.888;5.186;2023-02-18T15:38:33;11.67;;;3.30;;
18726;SDS011;9492;51.888;5.186;2023-02-18T15:41:03;10.37;;;3.47;;
18726;SDS011;9492;51.888;5.186;2023-02-18T15:43:29;13.93;;;3.20;;
18726;SDS011;9492;51.888;5.186;2023-02-18T15:45:56;13.67;;;3.43;;
18726;SDS011;9492;51.888;5.186;2023-02-18T15:50:50;12.70;;;4.13;;
18726;SDS011;9492;51.888;5.186;2023-02-18T15:53:17;12.73;;;3.67;;
18726;SDS011;9492;51.888;5.186;2023-02-18T15:55:45;11.10;;;3.17;;
18726;SDS011;9492;51.888;5.186;2023-02-18T16:00:49;10.27;;;3.60;;
18726;SDS011;9492;51.888;5.186;2023-02-18T16:03:18;11.13;;;2.83;;
18726;SDS011;9492;51.888;5.186;2023-02-18T16:05:45;10.93;;;2.80;;
18726;SDS011;9492;51.888;5.186;2023-02-18T16:08:14;13.20;;;3.47;;
18726;SDS011;9492;51.888;5.186;2023-02-18T16:10:56;13.47;;;3.60;;
18726;SDS011;9492;51.888;5.186;2023-02-18T16:13:25;15.17;;;2.93;;
18726;SDS011;9492;51.888;5.186;2023-02-18T16:15:53;13.53;;;3.40;;
18726;SDS011;9492;51.888;5.186;2023-02-18T16:21:00;14.27;;;3.43;;
18726;SDS011;9492;51.888;5.186;2023-02-18T16:23:35;9.73;;;3.07;;
18726;SDS011;9492;51.888;5.186;2023-02-18T16:31:56;10.27;;;3.13;;
18726;SDS011;9492;51.888;5.186;2023-02-18T16:34:22;11.87;;;3.00;;
18726;SDS011;9492;51.888;5.186;2023-02-18T16:36:48;10.73;;;3.27;;
18726;SDS011;9492;51.888;5.186;2023-02-18T16:39:37;11.43;;;3.27;;
18726;SDS011;9492;51.888;5.186;2023-02-18T16:42:10;9.83;;;2.90;;
18726;SDS011;9492;51.888;5.186;2023-02-18T16:44:38;11.17;;;3.47;;
18726;SDS011;9492;51.888;5.186;2023-02-18T16:47:04;13.23;;;3.70;;
18726;SDS011;9492;51.888;5.186;2023-02-18T16:49:38;12.93;;;3.37;;
18726;SDS011;9492;51.888;5.186;2023-02-18T16:52:07;16.40;;;4.13;;
18726;SDS011;9492;51.888;5.186;2023-02-18T16:54:33;9.23;;;3.63;;
18726;SDS011;9492;51.888;5.186;2023-02-18T16:56:59;14.70;;;3.90;;
18726;SDS011;9492;51.888;5.186;2023-02-18T16:59:27;12.50;;;3.80;;
18726;SDS011;9492;51.888;5.186;2023-02-18T17:01:53;17.43;;;3.97;;
18726;SDS011;9492;51.888;5.186;2023-02-18T17:04:21;13.03;;;3.33;;
18726;SDS011;9492;51.888;5.186;2023-02-18T17:06:47;15.63;;;4.23;;
18726;SDS011;9492;51.888;5.186;2023-02-18T17:09:18;13.97;;;3.87;;
18726;SDS011;9492;51.888;5.186;2023-02-18T17:11:46;13.40;;;3.97;;
18726;SDS011;9492;51.888;5.186;2023-02-18T17:14:16;11.63;;;3.77;;
18726;SDS011;9492;51.888;5.186;2023-02-18T17:16:43;16.17;;;4.37;;
18726;SDS011;9492;51.888;5.186;2023-02-18T17:19:09;18.27;;;4.83;;
18726;SDS011;9492;51.888;5.186;2023-02-18T17:21:35;9.50;;;3.43;;
18726;SDS011;9492;51.888;5.186;2023-02-18T17:24:02;13.77;;;4.17;;
18726;SDS011;9492;51.888;5.186;2023-02-18T17:26:29;18.53;;;4.33;;
18726;SDS011;9492;51.888;5.186;2023-02-18T17:28:58;17.93;;;4.30;;
18726;SDS011;9492;51.888;5.186;2023-02-18T17:31:25;13.70;;;3.80;;
18726;SDS011;9492;51.888;5.186;2023-02-18T17:33:55;12.70;;;4.53;;
18726;SDS011;9492;51.888;5.186;2023-02-18T17:36:22;13.03;;;3.40;;
18726;SDS011;9492;51.888;5.186;2023-02-18T17:38:49;15.97;;;4.17;;
18726;SDS011;9492;51.888;5.186;2023-02-18T17:41:15;14.10;;;3.83;;
18726;SDS011;9492;51.888;5.186;2023-02-18T17:43:41;7.60;;;3.17;;